MOOI WEER BOXTEL

Weerstation in Boxtel

Actuele weerinformatie en voorspellingen


Onweer radar Meer informatie blitzortung!


Regen radar Meer informatie rain snow radar


Meer informatie

Template documentation
and downloads

Weblog Hans on Experience

Profiel Hans Mestrum



Het weer levert geen direct gevaar op.    Er zijn geen waarschuwingen afgegeven.

METAR rapporten vliegvelden

   
EHEH - Eindhoven
Gewijzigd: 21-01-2019 14:55
Grotendeels bewolkt  
Grotendeels bewolkt  
   Wind: ZZW 9.3 km/h
Wind: ZZW 9.3 km/h
Temperatuur: 3°C
Voelt als: 1°C
Dauwpunt: -5°C
Vochtigheid: 56%
Barometer: 1021 hPa
Bewolking: Grotendeels bewolkt
Zicht: meer dan 10 km
Bewolking: Grotendeels bewolkt 30000 ft
EHEH 211355Z AUTO 21005KT 190V250 9999 BKN300 03/M05 Q1021 BLU 21005KT CAVOK
EHVK - Volkel
Gewijzigd: 21-01-2019 14:55
Licht bewolkt  
Licht bewolkt  
   Wind: ZW 9.3 km/h
Wind: ZW 9.3 km/h
Temperatuur: 3°C
Voelt als: 1°C
Dauwpunt: -5°C
Vochtigheid: 56%
Barometer: 1021 hPa
Bewolking: Licht bewolkt
Zicht: meer dan 10 km
Bewolking: Licht bewolkt 31000 ft
EHVK 211355Z AUTO 22005KT 190V250 9999 FEW310 03/M05 Q1021 BLU 23005KT CAVOK
EBAW - Antwerpen
Gewijzigd: 21-01-2019 14:50
Helder  
Helder  
   Wind: ZW 11.1 km/h
Wind: ZW 11.1 km/h
Temperatuur: 3°C
Voelt als: 0°C
Dauwpunt: -5°C
Vochtigheid: 56%
Barometer: 1022 hPa
Zicht: meer dan 10 km
Bewolking: Helder
EBAW 211350Z 22006KT CAVOK 03/M05 Q1022 NOSIG
EHBK - Maastricht
Gewijzigd: 21-01-2019 14:55
Helder  
Helder  
   Wind: ZW 9.3 km/h
Wind: ZW 9.3 km/h
Temperatuur: 1°C
Voelt als: -2°C
Dauwpunt: -4°C
Vochtigheid: 70%
Barometer: 1021 hPa
Bewolking: Helder
Zicht: meer dan 10 km
Bewolking: Helder
EHBK 211355Z AUTO 22005KT 9999 NCD 01/M04 Q1021 NOSIG
ELLX - Luxemburg
Gewijzigd: 21-01-2019 14:50
Helder  
Helder  
   Wind: NO 7.4 km/h
Wind: NO 7.4 km/h
Temperatuur: 0°C
Voelt als: -3°C
Dauwpunt: -7°C
Vochtigheid: 60%
Barometer: 1019 hPa
Zicht: meer dan 10 km
Bewolking: Helder
ELLX 211350Z 05004KT 020V080 CAVOK M00/M07 Q1019 NOSIG
 

Script ontwikkeld door  Saratoga-weather.org Aangepast voor de template door  Weerstation Leuven

U vindt ons ook hier:

Het Weer Aktueel

UK Metoffice

European Weather Network

Weather Underground

Benelux Weer Netwerk

AWEKAS

Citizen Weather Observer Program (CWOP)

HAMweather, WeatherForYou, PWS Weather

Apparatuur in gebruik:

Weerstation
Davis Vue ISS

Weerprogramma
Meteobridge

Weercomputer
Asus WL -330N3G

Webleverancier
Weerhuisje.nl

Davis Vue ISS

Meteobridge

Asus WL -330N3G

Weerhuisje.nl